Time;durP1;ratioP1;P1;durP2;ratioP2;P2;SDS_P1;SDS_P2;PMS_P1;PMS_P2;Temp;Humidity;BMP_temperature;BMP_pressure;BME280_temperature;BME280_humidity;BME280_pressure;Samples;Min_cycle;Max_cycle;Signal;HPM_P1;HPM_P2
2022/01/23 00:00:05;;;;;;;6.72;5.00;;;;;;;;;;5110952;28;20036;-65
2022/01/23 00:02:34;;;;;;;9.80;5.25;;;;;;;;;;5093020;28;20040;-65
2022/01/23 00:05:06;;;;;;;12.32;5.50;;;;;;;;;;5111185;28;20039;-66
2022/01/23 00:07:33;;;;;;;9.70;5.20;;;;;;;;;;5093158;28;20040;-66
2022/01/23 00:10:00;;;;;;;12.95;5.28;;;;;;;;;;5111370;28;20043;-66
2022/01/23 00:12:29;;;;;;;10.32;4.70;;;;;;;;;;5110563;28;20116;-66
2022/01/23 00:17:41;;;;;;;9.88;4.80;;;;;;;;;;5107405;28;20063;-66
2022/01/23 00:20:08;;;;;;;8.43;4.53;;;;;;;;;;5110121;28;20031;-66
2022/01/23 00:22:42;;;;;;;8.68;4.88;;;;;;;;;;5110556;28;20036;-65
2022/01/23 00:30:41;;;;;;;9.82;5.30;;;;;;;;;;5132126;22;20047;-65
2022/01/23 00:33:07;;;;;;;10.52;4.85;;;;;;;;;;5141992;22;20118;-65
2022/01/23 00:35:35;;;;;;;8.10;5.75;;;;;;;;;;5107850;22;20071;-66
2022/01/23 00:38:01;;;;;;;10.20;4.88;;;;;;;;;;5111356;28;20134;-65
2022/01/23 00:40:28;;;;;;;10.02;4.80;;;;;;;;;;5076395;28;20122;-65
2022/01/23 00:42:55;;;;;;;11.32;5.18;;;;;;;;;;5111163;28;20039;-66
2022/01/23 00:45:41;;;;;;;9.90;4.88;;;;;;;;;;5111120;28;20051;-66
2022/01/23 00:48:08;;;;;;;12.50;5.70;;;;;;;;;;5111392;28;20065;-65
2022/01/23 00:50:44;;;;;;;8.10;4.63;;;;;;;;;;5111169;28;20122;-66
2022/01/23 00:53:11;;;;;;;10.10;5.03;;;;;;;;;;5111354;28;20046;-65
2022/01/23 00:55:38;;;;;;;11.05;4.95;;;;;;;;;;5111101;28;20380;-65
2022/01/23 00:58:04;;;;;;;9.90;5.13;;;;;;;;;;5113968;28;20039;-65
2022/01/23 01:00:30;;;;;;;8.20;5.63;;;;;;;;;;5115094;28;20411;-65
2022/01/23 01:02:58;;;;;;;12.85;5.10;;;;;;;;;;5096347;28;20084;-66
2022/01/23 01:05:26;;;;;;;9.95;5.07;;;;;;;;;;5114750;28;20396;-65
2022/01/23 01:07:52;;;;;;;12.77;5.68;;;;;;;;;;5114475;28;20092;-65
2022/01/23 01:10:24;;;;;;;9.68;5.30;;;;;;;;;;5115087;28;20039;-65
2022/01/23 01:12:55;;;;;;;11.25;5.53;;;;;;;;;;5130817;22;20044;-65
2022/01/23 01:34:01;;;;;;;11.23;5.35;;;;;;;;;;5135034;27;20031;-63
2022/01/23 01:36:35;;;;;;;10.88;5.20;;;;;;;;;;5135106;27;20110;-63
2022/01/23 01:39:01;;;;;;;10.38;5.53;;;;;;;;;;5134777;27;20039;-63
2022/01/23 01:41:27;;;;;;;8.93;5.30;;;;;;;;;;5134500;27;20122;-63
2022/01/23 01:43:54;;;;;;;8.65;5.60;;;;;;;;;;5134813;27;20039;-64
2022/01/23 01:46:20;;;;;;;8.85;5.68;;;;;;;;;;5116154;27;20046;-63
2022/01/23 01:48:46;;;;;;;11.15;5.60;;;;;;;;;;5134837;27;20561;-65
2022/01/23 01:51:14;;;;;;;13.80;6.22;;;;;;;;;;5134263;27;20054;-66
2022/01/23 01:53:45;;;;;;;8.85;6.10;;;;;;;;;;5134253;27;20043;-65
2022/01/23 01:56:11;;;;;;;10.40;5.70;;;;;;;;;;5134057;27;20415;-66
2022/01/23 02:02:42;;;;;;;10.65;6.32;;;;;;;;;;5134140;27;20043;-66
2022/01/23 02:09:20;;;;;;;10.63;6.22;;;;;;;;;;5133805;27;20093;-65
2022/01/23 02:50:32;;;;;;;13.35;6.00;;;;;;;;;;5133307;27;20391;-66
2022/01/23 02:55:44;;;;;;;9.48;6.45;;;;;;;;;;5133241;27;20488;-65
2022/01/23 02:58:13;;;;;;;10.90;6.30;;;;;;;;;;5133169;27;20543;-66
2022/01/23 03:01:01;;;;;;;13.45;7.28;;;;;;;;;;5132795;27;20087;-65
2022/01/23 03:03:27;;;;;;;11.80;6.85;;;;;;;;;;5132880;27;20043;-65
2022/01/23 03:09:49;;;;;;;12.05;6.88;;;;;;;;;;5049223;28;20049;-65
2022/01/23 03:25:06;;;;;;;10.85;7.25;;;;;;;;;;5132584;27;20122;-63
2022/01/23 03:30:22;;;;;;;;;;;;;;;;;;5133188;27;20069;-64
2022/01/23 03:32:50;;;;;;;9.88;6.70;;;;;;;;;;5132446;27;20007;-65
2022/01/23 03:35:17;;;;;;;13.23;8.07;;;;;;;;;;5132192;27;20511;-64
2022/01/23 03:37:43;;;;;;;10.93;7.40;;;;;;;;;;5132378;27;20433;-65
2022/01/23 03:40:09;;;;;;;14.75;7.68;;;;;;;;;;5132092;27;20088;-65
2022/01/23 03:42:38;;;;;;;12.07;7.20;;;;;;;;;;5131888;27;20078;-64
2022/01/23 03:47:39;;;;;;;13.55;7.80;;;;;;;;;;5132180;27;20133;-65
2022/01/23 03:50:06;;;;;;;13.07;7.22;;;;;;;;;;5132274;27;20046;-65
2022/01/23 03:52:32;;;;;;;12.85;8.00;;;;;;;;;;5131843;28;20061;-64
2022/01/23 03:54:58;;;;;;;15.90;8.43;;;;;;;;;;5131962;28;20035;-65
2022/01/23 03:57:24;;;;;;;15.65;8.07;;;;;;;;;;5132416;28;20122;-65
2022/01/23 03:59:50;;;;;;;14.93;8.15;;;;;;;;;;5132287;28;20118;-64
2022/01/23 04:02:16;;;;;;;15.60;7.75;;;;;;;;;;5132016;28;20195;-64
2022/01/23 04:04:43;;;;;;;15.07;9.27;;;;;;;;;;5133328;22;20089;-62
2022/01/23 04:07:15;;;;;;;14.80;8.48;;;;;;;;;;5126659;22;20067;-65
2022/01/23 04:09:42;;;;;;;15.43;9.30;;;;;;;;;;5112371;28;20035;-64
2022/01/23 04:12:12;;;;;;;15.07;8.68;;;;;;;;;;5110929;28;20062;-65
2022/01/23 04:14:46;;;;;;;16.38;8.90;;;;;;;;;;5111150;28;20066;-65
2022/01/23 04:33:49;;;;;;;16.63;8.57;;;;;;;;;;5115348;28;20112;-65
2022/01/23 05:00:59;;;;;;;19.27;10.40;;;;;;;;;;5114785;28;20043;-64
2022/01/23 05:06:11;;;;;;;15.20;9.98;;;;;;;;;;5114671;28;20084;-65
2022/01/23 05:08:38;;;;;;;13.95;8.82;;;;;;;;;;5096174;28;20036;-65
2022/01/23 05:11:06;;;;;;;20.13;10.43;;;;;;;;;;5114385;28;20043;-64
2022/01/23 05:13:33;;;;;;;16.83;10.20;;;;;;;;;;5114471;28;20050;-64
2022/01/23 05:15:59;;;;;;;20.80;10.63;;;;;;;;;;5114732;28;20035;-65
2022/01/23 05:18:25;;;;;;;24.65;11.60;;;;;;;;;;5114743;28;20118;-65
2022/01/23 05:21:01;;;;;;;20.20;10.68;;;;;;;;;;5096497;28;20044;-64
2022/01/23 05:23:29;;;;;;;17.45;9.45;;;;;;;;;;5114679;28;20044;-64
2022/01/23 05:25:55;;;;;;;14.30;9.45;;;;;;;;;;5096601;28;20077;-64
2022/01/23 05:28:21;;;;;;;14.93;9.60;;;;;;;;;;5114546;28;20050;-64
2022/01/23 05:30:47;;;;;;;17.17;10.10;;;;;;;;;;5114410;28;20040;-65
2022/01/23 05:33:13;;;;;;;23.52;11.38;;;;;;;;;;5113920;28;20035;-65
2022/01/23 05:35:39;;;;;;;16.95;10.43;;;;;;;;;;5114308;28;20031;-64
2022/01/23 05:38:05;;;;;;;19.63;10.75;;;;;;;;;;5114351;28;20047;-65
2022/01/23 05:40:31;;;;;;;17.30;10.27;;;;;;;;;;5114714;28;20035;-64
2022/01/23 05:42:57;;;;;;;31.88;17.15;;;;;;;;;;5113123;28;20089;-64
2022/01/23 05:45:23;;;;;;;50.17;22.40;;;;;;;;;;5113888;28;20040;-65
2022/01/23 05:47:49;;;;;;;36.45;17.85;;;;;;;;;;5114110;28;20042;-65
2022/01/23 05:50:15;;;;;;;33.05;17.27;;;;;;;;;;5113809;28;20036;-64
2022/01/23 05:52:41;;;;;;;37.92;19.25;;;;;;;;;;5113802;28;19940;-64
2022/01/23 05:55:07;;;;;;;21.48;13.40;;;;;;;;;;5114065;28;20050;-64
2022/01/23 05:57:33;;;;;;;24.75;10.88;;;;;;;;;;5114088;28;20028;-64
2022/01/23 05:59:59;;;;;;;18.23;10.10;;;;;;;;;;5113940;28;20046;-65
2022/01/23 06:02:25;;;;;;;19.65;9.82;;;;;;;;;;5113512;28;20044;-64
2022/01/23 06:04:51;;;;;;;16.42;8.80;;;;;;;;;;5102192;27;20062;-64
2022/01/23 06:07:17;;;;;;;17.63;9.82;;;;;;;;;;5106288;28;20508;-64
2022/01/23 06:09:43;;;;;;;16.63;9.27;;;;;;;;;;5113745;28;20054;-64
2022/01/23 06:12:10;;;;;;;16.92;10.07;;;;;;;;;;5113386;28;20078;-65
2022/01/23 06:14:36;;;;;;;17.23;11.30;;;;;;;;;;5113600;28;20525;-64
2022/01/23 06:17:02;;;;;;;16.90;10.70;;;;;;;;;;5113886;28;20381;-65
2022/01/23 06:19:28;;;;;;;20.38;13.30;;;;;;;;;;5113907;28;20031;-64
2022/01/23 06:21:54;;;;;;;22.10;12.60;;;;;;;;;;5113872;28;20048;-64
2022/01/23 06:26:52;;;;;;;34.72;23.75;;;;;;;;;;5127508;22;20035;-64
2022/01/23 06:29:18;;;;;;;37.25;25.92;;;;;;;;;;5134939;27;20384;-63
2022/01/23 06:31:48;;;;;;;36.78;27.70;;;;;;;;;;5134352;27;20441;-63
2022/01/23 06:34:16;;;;;;;21.15;12.25;;;;;;;;;;5134223;27;20039;-63
2022/01/23 06:36:42;;;;;;;16.00;11.13;;;;;;;;;;5134055;27;20035;-63
2022/01/23 06:39:09;;;;;;;19.90;12.10;;;;;;;;;;5133871;27;20031;-63
2022/01/23 06:41:36;;;;;;;20.38;11.77;;;;;;;;;;5133362;27;20487;-63
2022/01/23 06:44:02;;;;;;;31.15;18.17;;;;;;;;;;5133910;27;20035;-63
2022/01/23 06:46:28;;;;;;;30.73;17.55;;;;;;;;;;5133549;27;20043;-63
2022/01/23 06:48:54;;;;;;;26.52;16.50;;;;;;;;;;5133753;27;20180;-63
2022/01/23 06:51:20;;;;;;;29.20;17.77;;;;;;;;;;5131151;27;20108;-62
2022/01/23 06:53:46;;;;;;;27.20;16.95;;;;;;;;;;5123744;27;20031;-63
2022/01/23 06:56:12;;;;;;;33.75;18.98;;;;;;;;;;5123143;27;20036;-63
2022/01/23 06:58:39;;;;;;;30.55;18.02;;;;;;;;;;5105612;27;20479;-64
2022/01/23 07:01:07;;;;;;;37.58;23.52;;;;;;;;;;5133230;27;20104;-64
2022/01/23 07:03:34;;;;;;;20.15;12.93;;;;;;;;;;5132536;27;20050;-64
2022/01/23 07:06:00;;;;;;;20.25;11.70;;;;;;;;;;5133091;27;20423;-64
2022/01/23 07:08:27;;;;;;;14.85;8.93;;;;;;;;;;5130022;27;20039;-64
2022/01/23 07:10:53;;;;;;;19.58;11.23;;;;;;;;;;5133173;27;20032;-63
2022/01/23 07:13:19;;;;;;;16.23;8.73;;;;;;;;;;5114825;27;20395;-63
2022/01/23 07:15:45;;;;;;;25.40;14.27;;;;;;;;;;5133887;27;20118;-65
2022/01/23 07:18:11;;;;;;;46.28;24.83;;;;;;;;;;5114768;27;20035;-65
2022/01/23 07:20:37;;;;;;;22.40;11.18;;;;;;;;;;5115444;27;20039;-65
2022/01/23 07:23:03;;;;;;;28.88;14.77;;;;;;;;;;5128570;27;20063;-63
2022/01/23 07:25:29;;;;;;;64.88;30.48;;;;;;;;;;5093468;27;20035;-64
2022/01/23 07:27:58;;;;;;;29.95;14.95;;;;;;;;;;5126470;27;20032;-64
2022/01/23 07:32:59;;;;;;;36.15;16.48;;;;;;;;;;5117602;27;20423;-64
2022/01/23 07:35:25;;;;;;;79.22;32.25;;;;;;;;;;5099940;28;20043;-64
2022/01/23 07:37:51;;;;;;;32.83;14.85;;;;;;;;;;5110233;27;20439;-64
2022/01/23 07:40:19;;;;;;;31.85;14.77;;;;;;;;;;5130815;27;20035;-64
2022/01/23 07:42:45;;;;;;;25.42;13.27;;;;;;;;;;5132197;27;20039;-65
2022/01/23 07:45:11;;;;;;;21.33;12.57;;;;;;;;;;5132744;27;20035;-64
2022/01/23 07:47:38;;;;;;;22.65;12.20;;;;;;;;;;5132640;27;20039;-65
2022/01/23 07:50:06;;;;;;;22.67;12.48;;;;;;;;;;5114218;28;20035;-65
2022/01/23 07:52:35;;;;;;;18.38;10.15;;;;;;;;;;5118795;28;20229;-65
2022/01/23 07:55:03;;;;;;;17.20;10.13;;;;;;;;;;5120759;28;20062;-66
2022/01/23 07:57:29;;;;;;;23.92;12.13;;;;;;;;;;5120961;28;20043;-66
2022/01/23 07:59:55;;;;;;;23.67;12.80;;;;;;;;;;5125145;28;20035;-66
2022/01/23 08:02:22;;;;;;;22.48;12.48;;;;;;;;;;5113198;28;20053;-66
2022/01/23 08:04:49;;;;;;;21.02;12.60;;;;;;;;;;5113037;28;20722;-66
2022/01/23 08:09:55;;;;;;;17.77;11.63;;;;;;;;;;5133928;27;20092;-65
2022/01/23 08:12:21;;;;;;;17.67;10.63;;;;;;;;;;5117211;27;20123;-64
2022/01/23 08:14:48;;;;;;;25.48;14.05;;;;;;;;;;5132829;27;20039;-66
2022/01/23 08:17:15;;;;;;;26.27;15.27;;;;;;;;;;5114880;27;20557;-66
2022/01/23 08:19:41;;;;;;;23.05;12.75;;;;;;;;;;5135906;27;20048;-65
2022/01/23 08:22:07;;;;;;;24.33;13.82;;;;;;;;;;5132925;27;20473;-65
2022/01/23 08:24:33;;;;;;;20.42;11.10;;;;;;;;;;5130300;27;20515;-65
2022/01/23 08:27:00;;;;;;;19.38;10.85;;;;;;;;;;5100116;27;20379;-66
2022/01/23 08:29:26;;;;;;;19.05;10.48;;;;;;;;;;5132756;27;20502;-66
2022/01/23 08:31:52;;;;;;;19.35;10.57;;;;;;;;;;5129918;27;20031;-65
2022/01/23 08:34:18;;;;;;;19.92;10.82;;;;;;;;;;5132792;27;20174;-64
2022/01/23 08:36:45;;;;;;;20.42;10.57;;;;;;;;;;5129711;27;20074;-66
2022/01/23 08:39:12;;;;;;;18.45;11.13;;;;;;;;;;5114260;27;20441;-66
2022/01/23 08:41:50;;;;;;;18.05;10.45;;;;;;;;;;5132690;27;20043;-66
2022/01/23 08:44:20;;;;;;;19.75;10.40;;;;;;;;;;5127625;27;20123;-65
2022/01/23 08:46:46;;;;;;;19.63;11.48;;;;;;;;;;5117293;27;20053;-65
2022/01/23 08:49:13;;;;;;;18.25;10.00;;;;;;;;;;5116857;27;20042;-66
2022/01/23 08:51:39;;;;;;;15.63;9.90;;;;;;;;;;5134923;27;20027;-65
2022/01/23 08:54:06;;;;;;;19.70;11.18;;;;;;;;;;5129739;27;20052;-65
2022/01/23 08:56:32;;;;;;;19.08;9.50;;;;;;;;;;5133771;27;20083;-66
2022/01/23 08:58:58;;;;;;;16.65;10.52;;;;;;;;;;5097031;27;20042;-65
2022/01/23 09:01:25;;;;;;;18.50;9.70;;;;;;;;;;5116019;27;20043;-65
2022/01/23 09:03:51;;;;;;;16.17;9.98;;;;;;;;;;5135047;27;20039;-63
2022/01/23 09:06:18;;;;;;;17.77;10.40;;;;;;;;;;5125248;27;20499;-65
2022/01/23 09:08:44;;;;;;;15.13;10.05;;;;;;;;;;5127319;27;20082;-63
2022/01/23 09:11:23;;;;;;;15.75;9.13;;;;;;;;;;5115596;27;20398;-66
2022/01/23 09:16:16;;;;;;;14.63;8.77;;;;;;;;;;5115452;27;20071;-66
2022/01/23 09:18:43;;;;;;;13.80;8.40;;;;;;;;;;5134048;27;20032;-64
2022/01/23 09:21:09;;;;;;;17.70;10.60;;;;;;;;;;5132063;27;20122;-63
2022/01/23 09:23:35;;;;;;;16.27;8.98;;;;;;;;;;5134644;27;20031;-64
2022/01/23 09:26:08;;;;;;;25.60;15.13;;;;;;;;;;5134572;27;20031;-65
2022/01/23 09:28:34;;;;;;;19.30;10.63;;;;;;;;;;5134851;27;20042;-65
2022/01/23 09:31:01;;;;;;;16.83;8.98;;;;;;;;;;5134404;27;20325;-66
2022/01/23 09:33:28;;;;;;;16.02;8.27;;;;;;;;;;5135535;27;20043;-66
2022/01/23 09:35:54;;;;;;;13.40;8.13;;;;;;;;;;5121346;27;20399;-64
2022/01/23 09:38:20;;;;;;;14.35;8.93;;;;;;;;;;5124137;27;20042;-65
2022/01/23 09:40:48;;;;;;;16.15;7.90;;;;;;;;;;5116876;27;20039;-66
2022/01/23 09:43:19;;;;;;;12.25;8.52;;;;;;;;;;5133160;27;20091;-64
2022/01/23 09:45:49;;;;;;;9.25;6.35;;;;;;;;;;5135664;27;20042;-67
2022/01/23 09:48:17;;;;;;;11.38;7.18;;;;;;;;;;5135146;27;20031;-66
2022/01/23 09:50:45;;;;;;;14.82;8.40;;;;;;;;;;5135286;27;20035;-66
2022/01/23 09:53:12;;;;;;;13.98;9.75;;;;;;;;;;5132928;27;20039;-66
2022/01/23 09:55:40;;;;;;;14.15;8.32;;;;;;;;;;5130457;27;20032;-65
2022/01/23 09:58:08;;;;;;;13.65;8.02;;;;;;;;;;5131052;27;20031;-65
2022/01/23 10:00:34;;;;;;;11.23;7.60;;;;;;;;;;5125855;27;20039;-65
2022/01/23 10:03:05;;;;;;;10.98;6.72;;;;;;;;;;5130137;27;20035;-63
2022/01/23 10:05:33;;;;;;;8.93;5.80;;;;;;;;;;5125808;27;20512;-64
2022/01/23 10:08:00;;;;;;;10.25;6.20;;;;;;;;;;5094194;27;20047;-63
2022/01/23 10:10:30;;;;;;;10.45;7.25;;;;;;;;;;5127353;27;20453;-64
2022/01/23 10:12:57;;;;;;;10.27;6.63;;;;;;;;;;5133536;27;20047;-64
2022/01/23 10:15:25;;;;;;;11.32;6.65;;;;;;;;;;5133362;27;20034;-65
2022/01/23 10:17:52;;;;;;;10.60;6.43;;;;;;;;;;5113664;27;20042;-66
2022/01/23 10:20:18;;;;;;;7.72;6.10;;;;;;;;;;5129804;27;20028;-64
2022/01/23 10:22:48;;;;;;;10.68;5.80;;;;;;;;;;5128755;27;20068;-65
2022/01/23 10:25:15;;;;;;;9.00;5.80;;;;;;;;;;5114952;27;20050;-65
2022/01/23 10:27:54;;;;;;;7.38;5.05;;;;;;;;;;5118904;27;20032;-65
2022/01/23 10:30:23;;;;;;;8.60;5.28;;;;;;;;;;5122348;27;20031;-66
2022/01/23 10:32:59;;;;;;;7.53;5.13;;;;;;;;;;5097257;27;20075;-65
2022/01/23 10:35:25;;;;;;;10.88;5.53;;;;;;;;;;5133398;27;20043;-64
2022/01/23 10:37:52;;;;;;;8.82;5.30;;;;;;;;;;5113901;27;20046;-64
2022/01/23 10:40:22;;;;;;;7.25;5.40;;;;;;;;;;5127385;27;20420;-63
2022/01/23 10:42:56;;;;;;;7.47;5.35;;;;;;;;;;5114588;27;20568;-63
2022/01/23 10:48:35;;;;;;;5.85;3.72;;;;;;;;;;5133739;27;20057;-65
2022/01/23 10:51:12;;;;;;;6.38;4.45;;;;;;;;;;5132759;27;20154;-66
2022/01/23 10:53:57;;;;;;;9.77;6.32;;;;;;;;;;5132711;27;20055;-66
2022/01/23 10:56:24;;;;;;;6.65;4.97;;;;;;;;;;5133321;27;20039;-66
2022/01/23 10:59:23;;;;;;;5.63;4.10;;;;;;;;;;5114770;27;20398;-65
2022/01/23 11:01:59;;;;;;;2.55;1.42;;;;;;;;;;5058793;27;20074;-65
2022/01/23 11:04:25;;;;;;;2.42;2.08;;;;;;;;;;5133228;27;20494;-66
2022/01/23 11:06:53;;;;;;;3.67;2.38;;;;;;;;;;5132624;27;20043;-65
2022/01/23 11:09:19;;;;;;;4.15;3.00;;;;;;;;;;5132555;27;20077;-66
2022/01/23 11:11:48;;;;;;;5.68;4.72;;;;;;;;;;5113463;27;20035;-65
2022/01/23 11:17:23;;;;;;;5.28;3.42;;;;;;;;;;5132691;27;20049;-65
2022/01/23 11:19:56;;;;;;;6.63;3.45;;;;;;;;;;5122993;27;20042;-65
2022/01/23 11:22:24;;;;;;;5.70;3.80;;;;;;;;;;5132031;27;20484;-67
2022/01/23 11:24:50;;;;;;;6.97;3.95;;;;;;;;;;5132573;27;20070;-65
2022/01/23 11:27:18;;;;;;;6.68;4.43;;;;;;;;;;5114188;27;20057;-65
2022/01/23 11:29:54;;;;;;;8.35;5.32;;;;;;;;;;5132995;27;20064;-66
2022/01/23 11:32:22;;;;;;;8.60;6.28;;;;;;;;;;5124751;27;20395;-67
2022/01/23 11:34:50;;;;;;;8.50;6.22;;;;;;;;;;5130841;27;20047;-64
2022/01/23 11:37:17;;;;;;;9.10;6.93;;;;;;;;;;5132390;27;20045;-64
2022/01/23 11:39:49;;;;;;;7.40;5.40;;;;;;;;;;5132667;27;20051;-64
2022/01/23 11:50:44;;;;;;;6.95;5.47;;;;;;;;;;5123875;27;20541;-65
2022/01/23 11:56:29;;;;;;;6.80;5.22;;;;;;;;;;5113979;28;20064;-64
2022/01/23 11:59:16;;;;;;;5.47;4.28;;;;;;;;;;5132730;28;20050;-64
2022/01/23 12:01:45;;;;;;;5.22;4.18;;;;;;;;;;5132572;28;20479;-65
2022/01/23 12:04:19;;;;;;;3.53;2.42;;;;;;;;;;5132098;28;20047;-66
2022/01/23 12:07:05;;;;;;;2.67;2.30;;;;;;;;;;5131845;28;20051;-65
2022/01/23 12:09:31;;;;;;;1.70;1.52;;;;;;;;;;5131887;28;20035;-65
2022/01/23 12:12:19;;;;;;;1.45;0.98;;;;;;;;;;5131423;28;20043;-65
2022/01/23 12:17:20;;;;;;;0.93;0.90;;;;;;;;;;5132151;28;20506;-65
2022/01/23 12:19:52;;;;;;;1.02;0.82;;;;;;;;;;5132131;28;20042;-65
2022/01/23 12:22:25;;;;;;;1.75;1.30;;;;;;;;;;5131467;28;20313;-65
2022/01/23 12:24:52;;;;;;;2.22;1.40;;;;;;;;;;5131661;28;20035;-65
2022/01/23 12:27:21;;;;;;;1.38;1.10;;;;;;;;;;5131563;28;20074;-64
2022/01/23 12:29:47;;;;;;;2.15;1.33;;;;;;;;;;5132549;28;20053;-65
2022/01/23 12:32:26;;;;;;;2.22;1.40;;;;;;;;;;5131869;28;20035;-66
2022/01/23 12:35:05;;;;;;;3.10;1.75;;;;;;;;;;5132597;28;20453;-64
2022/01/23 12:37:50;;;;;;;3.08;2.10;;;;;;;;;;5132144;28;20127;-64
2022/01/23 12:40:25;;;;;;;3.70;2.50;;;;;;;;;;5132201;28;20035;-64
2022/01/23 12:43:10;;;;;;;2.88;2.20;;;;;;;;;;5113995;28;20075;-65
2022/01/23 12:45:47;;;;;;;2.70;1.95;;;;;;;;;;5132647;27;20050;-64
2022/01/23 12:48:25;;;;;;;2.35;1.52;;;;;;;;;;5132509;28;20035;-65
2022/01/23 12:50:52;;;;;;;2.58;1.50;;;;;;;;;;5132214;28;20134;-66
2022/01/23 12:53:18;;;;;;;2.15;1.50;;;;;;;;;;5133866;27;20122;-66
2022/01/23 12:56:03;;;;;;;1.73;1.27;;;;;;;;;;5136312;27;20031;-66
2022/01/23 12:58:32;;;;;;;2.28;1.50;;;;;;;;;;5132934;27;20071;-66
2022/01/23 13:00:59;;;;;;;2.30;1.95;;;;;;;;;;5132774;27;20148;-65
2022/01/23 13:03:26;;;;;;;4.82;3.22;;;;;;;;;;5135517;27;20027;-66
2022/01/23 13:05:56;;;;;;;3.72;2.50;;;;;;;;;;5110241;27;20039;-66
2022/01/23 13:08:30;;;;;;;3.60;2.90;;;;;;;;;;5135656;27;20027;-66
2022/01/23 13:11:21;;;;;;;3.55;2.38;;;;;;;;;;5115662;27;20043;-65
2022/01/23 13:14:03;;;;;;;3.47;2.60;;;;;;;;;;5131355;27;20104;-65
2022/01/23 13:16:39;;;;;;;3.95;2.70;;;;;;;;;;5111357;28;20043;-66
2022/01/23 13:19:45;;;;;;;4.35;2.60;;;;;;;;;;5134475;27;20507;-66
2022/01/23 13:30:22;;;;;;;3.13;2.58;;;;;;;;;;5133856;27;20477;-65
2022/01/23 13:32:52;;;;;;;3.08;2.30;;;;;;;;;;5131803;27;20127;-64
2022/01/23 13:35:22;;;;;;;4.90;2.90;;;;;;;;;;5133249;27;20047;-66
2022/01/23 13:37:59;;;;;;;2.67;2.45;;;;;;;;;;5132257;27;20096;-65
2022/01/23 13:40:38;;;;;;;2.90;1.95;;;;;;;;;;5135871;27;20035;-64
2022/01/23 13:54:19;;;;;;;7.13;5.55;;;;;;;;;;5132101;27;20409;-66
2022/01/23 13:59:47;;;;;;;3.30;1.83;;;;;;;;;;5134912;27;20459;-66
2022/01/23 14:02:19;;;;;;;2.08;1.60;;;;;;;;;;5126225;27;20035;-65
2022/01/23 14:04:48;;;;;;;2.20;2.03;;;;;;;;;;5133530;27;20039;-65
2022/01/23 14:07:18;;;;;;;3.00;2.58;;;;;;;;;;5114977;28;20476;-66
2022/01/23 14:09:45;;;;;;;2.60;2.25;;;;;;;;;;5114338;28;20050;-66
2022/01/23 14:12:12;;;;;;;3.33;2.90;;;;;;;;;;5114194;28;20155;-67
2022/01/23 14:14:49;;;;;;;3.83;2.92;;;;;;;;;;5114192;28;20039;-67
2022/01/23 14:17:16;;;;;;;6.07;3.92;;;;;;;;;;5114327;28;20036;-66
2022/01/23 14:19:55;;;;;;;3.97;3.33;;;;;;;;;;5114336;28;20484;-66
2022/01/23 14:22:27;;;;;;;7.95;6.25;;;;;;;;;;5113937;28;20043;-65
2022/01/23 14:24:53;;;;;;;8.05;6.80;;;;;;;;;;5114098;28;20054;-66
2022/01/23 14:27:21;;;;;;;8.48;7.10;;;;;;;;;;5111859;28;20035;-66
2022/01/23 14:29:52;;;;;;;3.38;3.00;;;;;;;;;;5095976;28;20562;-66
2022/01/23 14:32:27;;;;;;;3.25;2.95;;;;;;;;;;5113055;28;20035;-66
2022/01/23 14:35:06;;;;;;;4.50;3.30;;;;;;;;;;5096033;28;20100;-65
2022/01/23 14:37:32;;;;;;;3.08;2.75;;;;;;;;;;5114226;28;20085;-64
2022/01/23 14:40:27;;;;;;;3.38;3.05;;;;;;;;;;5095608;28;20044;-65
2022/01/23 14:43:01;;;;;;;4.38;3.97;;;;;;;;;;5091927;28;20126;-66
2022/01/23 14:45:29;;;;;;;5.88;4.65;;;;;;;;;;5113784;28;20050;-64
2022/01/23 14:47:55;;;;;;;5.97;4.30;;;;;;;;;;5113478;28;20031;-66
2022/01/23 14:50:25;;;;;;;4.80;4.30;;;;;;;;;;5113733;28;20071;-66
2022/01/23 14:52:53;;;;;;;5.15;4.28;;;;;;;;;;5096049;28;20499;-65
2022/01/23 14:55:20;;;;;;;5.72;5.22;;;;;;;;;;5113697;28;20062;-68
2022/01/23 14:57:47;;;;;;;5.68;4.15;;;;;;;;;;5112888;28;20039;-66
2022/01/23 15:00:14;;;;;;;5.53;4.80;;;;;;;;;;5113482;28;20404;-66
2022/01/23 15:02:41;;;;;;;5.97;5.38;;;;;;;;;;5094859;28;20043;-66
2022/01/23 15:05:10;;;;;;;5.60;4.65;;;;;;;;;;5113707;28;20085;-66
2022/01/23 15:07:41;;;;;;;5.10;4.65;;;;;;;;;;5113589;28;20031;-63
2022/01/23 15:10:10;;;;;;;5.78;4.80;;;;;;;;;;5095303;28;20584;-64
2022/01/23 15:12:38;;;;;;;6.70;5.13;;;;;;;;;;5112983;28;20028;-64
2022/01/23 15:15:08;;;;;;;5.70;5.10;;;;;;;;;;5113186;28;20392;-64
2022/01/23 15:17:39;;;;;;;8.90;7.00;;;;;;;;;;5112833;28;20114;-65
2022/01/23 15:20:06;;;;;;;8.45;6.50;;;;;;;;;;5112586;28;20036;-65
2022/01/23 15:22:33;;;;;;;11.40;10.02;;;;;;;;;;5094178;28;20036;-64
2022/01/23 15:25:00;;;;;;;8.68;7.07;;;;;;;;;;5112693;28;20484;-65
2022/01/23 15:27:27;;;;;;;9.15;7.45;;;;;;;;;;5112564;28;20043;-65
2022/01/23 15:29:54;;;;;;;8.77;6.70;;;;;;;;;;5123753;27;20042;-64
2022/01/23 15:32:24;;;;;;;6.35;5.60;;;;;;;;;;5133103;27;20038;-64
2022/01/23 15:34:52;;;;;;;5.88;4.85;;;;;;;;;;5114591;27;20051;-65
2022/01/23 15:37:19;;;;;;;7.18;5.72;;;;;;;;;;5133391;27;20039;-64
2022/01/23 15:39:46;;;;;;;5.55;5.05;;;;;;;;;;5133220;27;20096;-65
2022/01/23 15:42:12;;;;;;;5.80;5.20;;;;;;;;;;5133343;27;20043;-64
2022/01/23 15:44:40;;;;;;;5.55;4.57;;;;;;;;;;5132989;27;20400;-64
2022/01/23 15:47:09;;;;;;;4.75;4.25;;;;;;;;;;5119796;27;20502;-65
2022/01/23 15:49:35;;;;;;;5.15;4.65;;;;;;;;;;5112394;28;20060;-65
2022/01/23 15:52:03;;;;;;;7.10;5.45;;;;;;;;;;5112136;28;20042;-66
2022/01/23 15:54:29;;;;;;;8.05;6.65;;;;;;;;;;5112198;28;20039;-66
2022/01/23 15:56:56;;;;;;;8.43;7.55;;;;;;;;;;5112153;28;20466;-66
2022/01/23 15:59:22;;;;;;;10.30;9.02;;;;;;;;;;5110946;28;20058;-65
2022/01/23 16:01:49;;;;;;;8.70;7.78;;;;;;;;;;5112104;28;20043;-66
2022/01/23 16:04:19;;;;;;;11.00;8.10;;;;;;;;;;5113140;28;20528;-65
2022/01/23 16:06:46;;;;;;;11.65;10.05;;;;;;;;;;5094779;28;20043;-66
2022/01/23 16:09:13;;;;;;;10.30;9.10;;;;;;;;;;5112551;28;20039;-65
2022/01/23 16:11:39;;;;;;;9.02;8.13;;;;;;;;;;5111545;28;20439;-65
2022/01/23 16:14:05;;;;;;;8.18;7.28;;;;;;;;;;5112106;28;20040;-66
2022/01/23 16:16:31;;;;;;;8.82;8.02;;;;;;;;;;5110896;28;20061;-66
2022/01/23 16:18:58;;;;;;;9.77;8.80;;;;;;;;;;5112158;28;20047;-66
2022/01/23 16:21:25;;;;;;;9.02;6.78;;;;;;;;;;5112017;28;20039;-66
2022/01/23 16:23:51;;;;;;;5.63;3.90;;;;;;;;;;5111531;28;20082;-65
2022/01/23 16:26:17;;;;;;;3.90;3.05;;;;;;;;;;5111974;28;20548;-63
2022/01/23 16:28:47;;;;;;;3.72;3.25;;;;;;;;;;5128282;27;20403;-63
2022/01/23 16:31:14;;;;;;;5.28;3.13;;;;;;;;;;5130002;27;20384;-63
2022/01/23 16:33:40;;;;;;;4.28;3.50;;;;;;;;;;5126410;27;20130;-66
2022/01/23 16:36:07;;;;;;;6.43;3.80;;;;;;;;;;5135891;27;20039;-66
2022/01/23 16:38:34;;;;;;;5.38;4.00;;;;;;;;;;5136372;27;20038;-66
2022/01/23 16:41:00;;;;;;;4.03;3.72;;;;;;;;;;5136218;27;20042;-65
2022/01/23 16:43:27;;;;;;;4.40;3.85;;;;;;;;;;5118104;27;20043;-65
2022/01/23 16:45:54;;;;;;;3.97;3.58;;;;;;;;;;5117128;27;20063;-65
2022/01/23 16:48:21;;;;;;;4.57;3.83;;;;;;;;;;5117835;27;20038;-65
2022/01/23 16:50:48;;;;;;;5.03;3.97;;;;;;;;;;5135957;27;20050;-65
2022/01/23 16:53:14;;;;;;;4.70;3.92;;;;;;;;;;5135684;27;20039;-65
2022/01/23 16:55:40;;;;;;;4.47;3.75;;;;;;;;;;5136171;27;20114;-65
2022/01/23 16:58:06;;;;;;;4.03;3.60;;;;;;;;;;5135068;27;20106;-65
2022/01/23 17:00:33;;;;;;;4.82;3.75;;;;;;;;;;5131637;27;20027;-66
2022/01/23 17:03:00;;;;;;;4.78;4.28;;;;;;;;;;5128862;27;20088;-65
2022/01/23 17:05:26;;;;;;;6.15;4.80;;;;;;;;;;5110587;27;20114;-66
2022/01/23 17:07:52;;;;;;;4.13;3.50;;;;;;;;;;5134498;27;20062;-66
2022/01/23 17:10:18;;;;;;;5.30;4.07;;;;;;;;;;5113423;27;20039;-66
2022/01/23 17:12:45;;;;;;;5.50;4.90;;;;;;;;;;5133186;27;20035;-66
2022/01/23 17:15:11;;;;;;;6.72;4.80;;;;;;;;;;5130686;27;20046;-66
2022/01/23 17:17:37;;;;;;;5.28;4.57;;;;;;;;;;5134411;27;20058;-65
2022/01/23 17:20:03;;;;;;;5.10;4.43;;;;;;;;;;5109496;28;20397;-66
2022/01/23 17:22:29;;;;;;;23.98;19.02;;;;;;;;;;5129089;27;20118;-65
2022/01/23 17:24:55;;;;;;;14.73;13.10;;;;;;;;;;5135018;27;20228;-65
2022/01/23 17:27:23;;;;;;;8.18;7.32;;;;;;;;;;5134644;27;20152;-65
2022/01/23 17:29:50;;;;;;;6.15;5.15;;;;;;;;;;5134791;27;20392;-64
2022/01/23 17:32:20;;;;;;;8.23;7.43;;;;;;;;;;5116328;27;20050;-64
2022/01/23 17:34:46;;;;;;;7.00;6.28;;;;;;;;;;5135219;27;20043;-64
2022/01/23 17:37:12;;;;;;;7.43;6.72;;;;;;;;;;5135187;27;20091;-64
2022/01/23 17:39:39;;;;;;;10.48;9.48;;;;;;;;;;5134695;27;20041;-63
2022/01/23 17:42:06;;;;;;;9.40;8.40;;;;;;;;;;5116002;27;20402;-63
2022/01/23 17:44:32;;;;;;;10.27;8.68;;;;;;;;;;5131689;27;20046;-64
2022/01/23 17:47:19;;;;;;;8.63;7.15;;;;;;;;;;5133711;27;20038;-64
2022/01/23 17:49:53;;;;;;;6.43;5.75;;;;;;;;;;5130544;27;20095;-64
2022/01/23 17:52:21;;;;;;;9.60;6.57;;;;;;;;;;5113477;27;20110;-63
2022/01/23 17:54:47;;;;;;;6.18;5.20;;;;;;;;;;5133738;27;20043;-63
2022/01/23 17:57:13;;;;;;;8.60;6.10;;;;;;;;;;5134178;27;20037;-64